sensor_id;sensor_type;location;lat;lon;timestamp;P1;durP1;ratioP1;P2;durP2;ratioP2
37859;SDS011;23698;52.014;5.190;2023-12-28T00:02:45;5.68;;;2.45;;
37859;SDS011;23698;52.014;5.190;2023-12-28T00:05:31;6.57;;;2.35;;
37859;SDS011;23698;52.014;5.190;2023-12-28T00:08:18;5.57;;;2.78;;
37859;SDS011;23698;52.014;5.190;2023-12-28T00:11:04;4.75;;;2.65;;
37859;SDS011;23698;52.014;5.190;2023-12-28T00:13:52;6.03;;;3.10;;
37859;SDS011;23698;52.014;5.190;2023-12-28T00:16:38;5.55;;;2.95;;
37859;SDS011;23698;52.014;5.190;2023-12-28T00:19:25;5.95;;;3.15;;
37859;SDS011;23698;52.014;5.190;2023-12-28T00:22:11;4.80;;;2.58;;
37859;SDS011;23698;52.014;5.190;2023-12-28T00:24:58;6.10;;;2.75;;
37859;SDS011;23698;52.014;5.190;2023-12-28T00:27:44;8.85;;;2.67;;
37859;SDS011;23698;52.014;5.190;2023-12-28T00:30:33;6.28;;;2.58;;
37859;SDS011;23698;52.014;5.190;2023-12-28T00:33:20;6.32;;;2.97;;
37859;SDS011;23698;52.014;5.190;2023-12-28T00:36:07;6.55;;;2.95;;
37859;SDS011;23698;52.014;5.190;2023-12-28T00:38:53;8.15;;;2.25;;
37859;SDS011;23698;52.014;5.190;2023-12-28T00:41:40;4.85;;;2.50;;
37859;SDS011;23698;52.014;5.190;2023-12-28T00:44:27;8.55;;;3.20;;
37859;SDS011;23698;52.014;5.190;2023-12-28T00:47:15;5.82;;;2.90;;
37859;SDS011;23698;52.014;5.190;2023-12-28T00:50:02;4.28;;;2.50;;
37859;SDS011;23698;52.014;5.190;2023-12-28T00:52:49;7.32;;;2.70;;
37859;SDS011;23698;52.014;5.190;2023-12-28T00:55:36;7.50;;;2.63;;
37859;SDS011;23698;52.014;5.190;2023-12-28T00:58:22;5.50;;;2.88;;
37859;SDS011;23698;52.014;5.190;2023-12-28T01:01:08;6.20;;;2.63;;
37859;SDS011;23698;52.014;5.190;2023-12-28T01:03:58;6.80;;;2.72;;
37859;SDS011;23698;52.014;5.190;2023-12-28T01:06:45;8.57;;;2.70;;
37859;SDS011;23698;52.014;5.190;2023-12-28T01:09:31;5.72;;;2.35;;
37859;SDS011;23698;52.014;5.190;2023-12-28T01:12:18;5.93;;;2.42;;
37859;SDS011;23698;52.014;5.190;2023-12-28T01:15:05;7.60;;;2.63;;
37859;SDS011;23698;52.014;5.190;2023-12-28T01:17:53;6.10;;;2.75;;
37859;SDS011;23698;52.014;5.190;2023-12-28T01:20:41;9.48;;;3.63;;
37859;SDS011;23698;52.014;5.190;2023-12-28T01:23:28;9.13;;;2.50;;
37859;SDS011;23698;52.014;5.190;2023-12-28T01:26:14;8.23;;;2.45;;
37859;SDS011;23698;52.014;5.190;2023-12-28T01:29:02;8.18;;;2.88;;
37859;SDS011;23698;52.014;5.190;2023-12-28T01:31:49;6.63;;;2.60;;
37859;SDS011;23698;52.014;5.190;2023-12-28T01:34:35;5.72;;;2.65;;
37859;SDS011;23698;52.014;5.190;2023-12-28T01:37:22;8.55;;;2.80;;
37859;SDS011;23698;52.014;5.190;2023-12-28T01:40:09;5.10;;;2.45;;
37859;SDS011;23698;52.014;5.190;2023-12-28T01:42:56;8.68;;;3.70;;
37859;SDS011;23698;52.014;5.190;2023-12-28T01:45:43;7.18;;;3.47;;
37859;SDS011;23698;52.014;5.190;2023-12-28T01:48:29;5.75;;;2.75;;
37859;SDS011;23698;52.014;5.190;2023-12-28T01:51:16;4.90;;;2.45;;
37859;SDS011;23698;52.014;5.190;2023-12-28T01:54:04;8.35;;;2.65;;
37859;SDS011;23698;52.014;5.190;2023-12-28T01:56:50;9.07;;;3.00;;
37859;SDS011;23698;52.014;5.190;2023-12-28T01:59:37;5.25;;;2.47;;
37859;SDS011;23698;52.014;5.190;2023-12-28T02:02:23;12.18;;;3.00;;
37859;SDS011;23698;52.014;5.190;2023-12-28T02:05:10;5.20;;;2.33;;
37859;SDS011;23698;52.014;5.190;2023-12-28T02:07:58;5.15;;;2.30;;
37859;SDS011;23698;52.014;5.190;2023-12-28T02:10:46;8.48;;;2.75;;
37859;SDS011;23698;52.014;5.190;2023-12-28T02:13:33;5.50;;;2.47;;
37859;SDS011;23698;52.014;5.190;2023-12-28T02:16:20;6.93;;;3.03;;
37859;SDS011;23698;52.014;5.190;2023-12-28T02:19:17;6.95;;;2.58;;
37859;SDS011;23698;52.014;5.190;2023-12-28T02:22:10;5.93;;;2.35;;
37859;SDS011;23698;52.014;5.190;2023-12-28T02:25:03;4.18;;;2.03;;
37859;SDS011;23698;52.014;5.190;2023-12-28T02:27:51;5.55;;;2.63;;
37859;SDS011;23698;52.014;5.190;2023-12-28T02:30:38;5.80;;;2.42;;
37859;SDS011;23698;52.014;5.190;2023-12-28T02:33:26;7.43;;;2.90;;
37859;SDS011;23698;52.014;5.190;2023-12-28T02:36:21;6.90;;;2.33;;
37859;SDS011;23698;52.014;5.190;2023-12-28T02:39:09;9.20;;;2.17;;
37859;SDS011;23698;52.014;5.190;2023-12-28T02:41:59;7.55;;;2.45;;
37859;SDS011;23698;52.014;5.190;2023-12-28T02:44:45;5.70;;;1.88;;
37859;SDS011;23698;52.014;5.190;2023-12-28T02:47:32;3.92;;;2.15;;
37859;SDS011;23698;52.014;5.190;2023-12-28T02:50:18;6.75;;;2.10;;
37859;SDS011;23698;52.014;5.190;2023-12-28T02:53:04;7.03;;;2.20;;
37859;SDS011;23698;52.014;5.190;2023-12-28T02:55:52;6.65;;;2.03;;
37859;SDS011;23698;52.014;5.190;2023-12-28T02:58:40;2.58;;;1.80;;
37859;SDS011;23698;52.014;5.190;2023-12-28T03:01:27;6.63;;;2.15;;
37859;SDS011;23698;52.014;5.190;2023-12-28T03:04:13;9.65;;;2.55;;
37859;SDS011;23698;52.014;5.190;2023-12-28T03:07:00;6.35;;;1.90;;
37859;SDS011;23698;52.014;5.190;2023-12-28T03:09:46;5.97;;;2.00;;
37859;SDS011;23698;52.014;5.190;2023-12-28T03:12:33;6.45;;;2.03;;
37859;SDS011;23698;52.014;5.190;2023-12-28T03:15:21;8.35;;;1.90;;
37859;SDS011;23698;52.014;5.190;2023-12-28T03:18:08;6.43;;;1.85;;
37859;SDS011;23698;52.014;5.190;2023-12-28T03:20:55;6.25;;;1.73;;
37859;SDS011;23698;52.014;5.190;2023-12-28T03:23:41;8.55;;;2.15;;
37859;SDS011;23698;52.014;5.190;2023-12-28T03:26:28;5.30;;;1.90;;
37859;SDS011;23698;52.014;5.190;2023-12-28T03:29:14;8.60;;;1.88;;
37859;SDS011;23698;52.014;5.190;2023-12-28T03:32:02;7.00;;;2.10;;
37859;SDS011;23698;52.014;5.190;2023-12-28T03:34:48;5.80;;;1.65;;
37859;SDS011;23698;52.014;5.190;2023-12-28T03:37:36;9.63;;;2.22;;
37859;SDS011;23698;52.014;5.190;2023-12-28T03:40:22;6.05;;;2.40;;
37859;SDS011;23698;52.014;5.190;2023-12-28T03:43:09;8.75;;;1.92;;
37859;SDS011;23698;52.014;5.190;2023-12-28T03:45:55;8.98;;;2.35;;
37859;SDS011;23698;52.014;5.190;2023-12-28T03:48:43;7.40;;;2.65;;
37859;SDS011;23698;52.014;5.190;2023-12-28T03:51:29;11.00;;;2.50;;
37859;SDS011;23698;52.014;5.190;2023-12-28T03:54:16;5.38;;;2.25;;
37859;SDS011;23698;52.014;5.190;2023-12-28T03:57:03;9.35;;;2.60;;
37859;SDS011;23698;52.014;5.190;2023-12-28T03:59:50;4.88;;;2.20;;
37859;SDS011;23698;52.014;5.190;2023-12-28T04:02:36;8.95;;;2.70;;
37859;SDS011;23698;52.014;5.190;2023-12-28T04:05:24;10.68;;;2.28;;
37859;SDS011;23698;52.014;5.190;2023-12-28T04:08:10;7.47;;;2.20;;
37859;SDS011;23698;52.014;5.190;2023-12-28T04:10:57;7.15;;;2.10;;
37859;SDS011;23698;52.014;5.190;2023-12-28T04:13:43;6.03;;;2.08;;
37859;SDS011;23698;52.014;5.190;2023-12-28T04:16:29;13.85;;;2.60;;
37859;SDS011;23698;52.014;5.190;2023-12-28T04:19:16;8.18;;;2.10;;
37859;SDS011;23698;52.014;5.190;2023-12-28T04:22:07;9.10;;;2.13;;
37859;SDS011;23698;52.014;5.190;2023-12-28T04:24:53;8.98;;;2.53;;
37859;SDS011;23698;52.014;5.190;2023-12-28T04:27:41;10.75;;;2.65;;
37859;SDS011;23698;52.014;5.190;2023-12-28T04:30:28;14.27;;;2.60;;
37859;SDS011;23698;52.014;5.190;2023-12-28T04:33:16;9.07;;;2.40;;
37859;SDS011;23698;52.014;5.190;2023-12-28T04:36:04;8.15;;;1.80;;
37859;SDS011;23698;52.014;5.190;2023-12-28T04:38:53;7.78;;;2.00;;
37859;SDS011;23698;52.014;5.190;2023-12-28T04:41:39;6.90;;;2.08;;
37859;SDS011;23698;52.014;5.190;2023-12-28T04:44:26;8.32;;;2.05;;
37859;SDS011;23698;52.014;5.190;2023-12-28T04:47:12;11.80;;;1.90;;
37859;SDS011;23698;52.014;5.190;2023-12-28T04:49:58;11.48;;;2.40;;
37859;SDS011;23698;52.014;5.190;2023-12-28T04:52:45;15.20;;;2.30;;
37859;SDS011;23698;52.014;5.190;2023-12-28T04:55:32;12.68;;;2.50;;
37859;SDS011;23698;52.014;5.190;2023-12-28T04:58:19;9.30;;;1.95;;
37859;SDS011;23698;52.014;5.190;2023-12-28T05:01:05;8.75;;;2.88;;
37859;SDS011;23698;52.014;5.190;2023-12-28T05:03:51;12.93;;;2.22;;
37859;SDS011;23698;52.014;5.190;2023-12-28T05:06:39;14.05;;;2.20;;
37859;SDS011;23698;52.014;5.190;2023-12-28T05:09:25;10.27;;;2.20;;
37859;SDS011;23698;52.014;5.190;2023-12-28T05:12:13;7.50;;;2.10;;
37859;SDS011;23698;52.014;5.190;2023-12-28T05:14:59;12.98;;;2.40;;
37859;SDS011;23698;52.014;5.190;2023-12-28T05:17:47;12.02;;;2.35;;
37859;SDS011;23698;52.014;5.190;2023-12-28T05:20:35;5.32;;;1.95;;
37859;SDS011;23698;52.014;5.190;2023-12-28T05:23:22;9.48;;;2.15;;
37859;SDS011;23698;52.014;5.190;2023-12-28T05:26:08;9.23;;;1.65;;
37859;SDS011;23698;52.014;5.190;2023-12-28T05:28:56;10.70;;;2.00;;
37859;SDS011;23698;52.014;5.190;2023-12-28T05:31:43;13.57;;;2.03;;
37859;SDS011;23698;52.014;5.190;2023-12-28T05:34:30;15.35;;;2.95;;
37859;SDS011;23698;52.014;5.190;2023-12-28T05:37:17;13.93;;;2.15;;
37859;SDS011;23698;52.014;5.190;2023-12-28T05:40:03;13.07;;;2.00;;
37859;SDS011;23698;52.014;5.190;2023-12-28T05:42:51;18.80;;;2.20;;
37859;SDS011;23698;52.014;5.190;2023-12-28T05:45:39;15.95;;;2.17;;
37859;SDS011;23698;52.014;5.190;2023-12-28T05:48:26;14.10;;;2.40;;
37859;SDS011;23698;52.014;5.190;2023-12-28T05:51:13;10.80;;;2.83;;
37859;SDS011;23698;52.014;5.190;2023-12-28T05:53:59;10.35;;;1.85;;
37859;SDS011;23698;52.014;5.190;2023-12-28T05:56:46;12.52;;;2.28;;
37859;SDS011;23698;52.014;5.190;2023-12-28T05:59:32;13.23;;;2.33;;
37859;SDS011;23698;52.014;5.190;2023-12-28T06:02:20;15.32;;;2.25;;
37859;SDS011;23698;52.014;5.190;2023-12-28T06:05:06;13.52;;;2.58;;
37859;SDS011;23698;52.014;5.190;2023-12-28T06:07:53;14.73;;;2.97;;
37859;SDS011;23698;52.014;5.190;2023-12-28T06:10:39;9.15;;;1.95;;
37859;SDS011;23698;52.014;5.190;2023-12-28T06:13:25;15.02;;;2.13;;
37859;SDS011;23698;52.014;5.190;2023-12-28T06:16:12;6.20;;;1.88;;
37859;SDS011;23698;52.014;5.190;2023-12-28T06:19:00;9.07;;;2.70;;
37859;SDS011;23698;52.014;5.190;2023-12-28T06:21:47;13.40;;;1.98;;
37859;SDS011;23698;52.014;5.190;2023-12-28T06:24:37;18.98;;;2.80;;
37859;SDS011;23698;52.014;5.190;2023-12-28T06:27:24;8.00;;;2.40;;
37859;SDS011;23698;52.014;5.190;2023-12-28T06:30:10;20.83;;;3.97;;
37859;SDS011;23698;52.014;5.190;2023-12-28T06:32:58;15.73;;;2.20;;
37859;SDS011;23698;52.014;5.190;2023-12-28T06:35:45;11.70;;;2.47;;
37859;SDS011;23698;52.014;5.190;2023-12-28T06:38:32;20.52;;;3.65;;
37859;SDS011;23698;52.014;5.190;2023-12-28T06:41:18;18.95;;;2.75;;
37859;SDS011;23698;52.014;5.190;2023-12-28T06:44:05;9.40;;;2.00;;
37859;SDS011;23698;52.014;5.190;2023-12-28T06:46:51;13.25;;;2.70;;
37859;SDS011;23698;52.014;5.190;2023-12-28T06:49:40;10.60;;;2.40;;
37859;SDS011;23698;52.014;5.190;2023-12-28T06:52:28;14.35;;;2.38;;
37859;SDS011;23698;52.014;5.190;2023-12-28T06:55:16;12.63;;;2.35;;
37859;SDS011;23698;52.014;5.190;2023-12-28T06:58:03;47.72;;;5.00;;
37859;SDS011;23698;52.014;5.190;2023-12-28T07:00:51;13.00;;;2.53;;
37859;SDS011;23698;52.014;5.190;2023-12-28T07:03:40;20.27;;;3.50;;
37859;SDS011;23698;52.014;5.190;2023-12-28T07:06:26;23.42;;;3.58;;
37859;SDS011;23698;52.014;5.190;2023-12-28T07:09:14;15.60;;;2.85;;
37859;SDS011;23698;52.014;5.190;2023-12-28T07:12:01;20.38;;;3.55;;
37859;SDS011;23698;52.014;5.190;2023-12-28T07:14:47;18.35;;;2.90;;
37859;SDS011;23698;52.014;5.190;2023-12-28T07:17:33;17.35;;;2.45;;
37859;SDS011;23698;52.014;5.190;2023-12-28T07:20:20;26.63;;;3.67;;
37859;SDS011;23698;52.014;5.190;2023-12-28T07:23:06;19.60;;;3.53;;
37859;SDS011;23698;52.014;5.190;2023-12-28T07:25:55;20.67;;;2.45;;
37859;SDS011;23698;52.014;5.190;2023-12-28T07:28:41;12.80;;;2.33;;
37859;SDS011;23698;52.014;5.190;2023-12-28T07:31:30;15.35;;;3.15;;
37859;SDS011;23698;52.014;5.190;2023-12-28T07:34:17;14.40;;;2.47;;
37859;SDS011;23698;52.014;5.190;2023-12-28T07:37:04;17.55;;;2.30;;
37859;SDS011;23698;52.014;5.190;2023-12-28T07:39:50;16.13;;;2.88;;
37859;SDS011;23698;52.014;5.190;2023-12-28T07:42:38;9.43;;;2.10;;
37859;SDS011;23698;52.014;5.190;2023-12-28T07:45:25;15.98;;;3.20;;
37859;SDS011;23698;52.014;5.190;2023-12-28T07:48:12;21.58;;;3.38;;
37859;SDS011;23698;52.014;5.190;2023-12-28T07:51:03;17.58;;;2.70;;
37859;SDS011;23698;52.014;5.190;2023-12-28T07:53:50;16.52;;;3.13;;
37859;SDS011;23698;52.014;5.190;2023-12-28T07:56:36;20.50;;;3.05;;
37859;SDS011;23698;52.014;5.190;2023-12-28T07:59:24;18.42;;;3.15;;
37859;SDS011;23698;52.014;5.190;2023-12-28T08:02:10;16.10;;;3.28;;
37859;SDS011;23698;52.014;5.190;2023-12-28T08:04:57;16.63;;;2.83;;
37859;SDS011;23698;52.014;5.190;2023-12-28T08:07:44;15.98;;;3.00;;
37859;SDS011;23698;52.014;5.190;2023-12-28T08:10:30;12.52;;;2.47;;
37859;SDS011;23698;52.014;5.190;2023-12-28T08:13:17;17.83;;;2.88;;
37859;SDS011;23698;52.014;5.190;2023-12-28T08:16:08;17.08;;;2.38;;
37859;SDS011;23698;52.014;5.190;2023-12-28T08:18:54;18.27;;;2.80;;
37859;SDS011;23698;52.014;5.190;2023-12-28T08:21:41;18.98;;;3.08;;
37859;SDS011;23698;52.014;5.190;2023-12-28T08:24:28;22.48;;;3.03;;
37859;SDS011;23698;52.014;5.190;2023-12-28T08:27:15;24.02;;;2.92;;
37859;SDS011;23698;52.014;5.190;2023-12-28T08:30:02;19.85;;;2.85;;
37859;SDS011;23698;52.014;5.190;2023-12-28T08:32:50;15.77;;;3.80;;
37859;SDS011;23698;52.014;5.190;2023-12-28T08:35:37;18.08;;;2.78;;
37859;SDS011;23698;52.014;5.190;2023-12-28T08:38:24;25.25;;;3.55;;
37859;SDS011;23698;52.014;5.190;2023-12-28T08:41:17;15.07;;;2.75;;
37859;SDS011;23698;52.014;5.190;2023-12-28T08:44:03;19.30;;;3.00;;
37859;SDS011;23698;52.014;5.190;2023-12-28T08:46:50;16.45;;;2.65;;
37859;SDS011;23698;52.014;5.190;2023-12-28T08:49:38;15.63;;;2.72;;
37859;SDS011;23698;52.014;5.190;2023-12-28T08:52:24;14.32;;;2.70;;
37859;SDS011;23698;52.014;5.190;2023-12-28T08:55:11;16.85;;;4.18;;
37859;SDS011;23698;52.014;5.190;2023-12-28T08:57:57;18.17;;;3.38;;
37859;SDS011;23698;52.014;5.190;2023-12-28T09:00:44;14.70;;;2.17;;
37859;SDS011;23698;52.014;5.190;2023-12-28T09:03:32;15.20;;;3.20;;
37859;SDS011;23698;52.014;5.190;2023-12-28T09:06:19;15.27;;;2.83;;
37859;SDS011;23698;52.014;5.190;2023-12-28T09:09:07;20.05;;;3.03;;
37859;SDS011;23698;52.014;5.190;2023-12-28T09:11:54;19.65;;;4.18;;
37859;SDS011;23698;52.014;5.190;2023-12-28T09:14:40;20.60;;;4.20;;
37859;SDS011;23698;52.014;5.190;2023-12-28T09:17:26;16.88;;;2.97;;
37859;SDS011;23698;52.014;5.190;2023-12-28T09:20:13;16.48;;;3.13;;
37859;SDS011;23698;52.014;5.190;2023-12-28T09:23:01;16.95;;;3.15;;
37859;SDS011;23698;52.014;5.190;2023-12-28T09:25:47;17.70;;;2.80;;
37859;SDS011;23698;52.014;5.190;2023-12-28T09:28:34;22.33;;;4.53;;
37859;SDS011;23698;52.014;5.190;2023-12-28T09:31:20;17.42;;;3.25;;
37859;SDS011;23698;52.014;5.190;2023-12-28T09:34:07;18.88;;;3.40;;
37859;SDS011;23698;52.014;5.190;2023-12-28T09:36:54;17.25;;;3.45;;
37859;SDS011;23698;52.014;5.190;2023-12-28T09:39:41;16.17;;;3.05;;
37859;SDS011;23698;52.014;5.190;2023-12-28T09:42:31;17.73;;;3.25;;
